createdAt,value
2018-04-16T00:00:45.878Z,80.24
2018-04-16T00:01:45.879Z,80.43
2018-04-16T00:02:45.875Z,80.24
2018-04-16T00:03:45.875Z,80.15
2018-04-16T00:04:45.871Z,79.96
2018-04-16T00:05:45.868Z,79.86
2018-04-16T00:06:45.869Z,79.77
2018-04-16T00:07:45.867Z,80.15
2018-04-16T00:08:45.862Z,79.96
2018-04-16T00:09:45.863Z,80.15
2018-04-16T00:10:45.860Z,80.33
2018-04-16T00:11:45.859Z,79.77
2018-04-16T00:12:45.855Z,80.15
2018-04-16T00:13:45.855Z,80.15
2018-04-16T00:14:45.853Z,80.15
2018-04-16T00:15:45.853Z,80.15
2018-04-16T00:16:45.850Z,80.05
2018-04-16T00:17:45.846Z,80.24
2018-04-16T00:18:45.846Z,80.33
2018-04-16T00:19:45.844Z,79.67
2018-04-16T00:20:45.836Z,79.67
2018-04-16T00:21:45.838Z,80.24
2018-04-16T00:22:45.836Z,80.05
2018-04-16T00:23:45.835Z,80.33
2018-04-16T00:24:45.830Z,80.33
2018-04-16T00:25:45.829Z,79.48
2018-04-16T00:26:45.825Z,79.67
2018-04-16T00:27:45.831Z,79.77
2018-04-16T00:28:45.823Z,80.15
2018-04-16T00:29:45.820Z,79.67
2018-04-16T00:30:45.866Z,79.67
2018-04-16T00:31:45.816Z,80.72
2018-04-16T00:32:45.813Z,80.53
2018-04-16T00:33:45.812Z,80.05
2018-04-16T00:34:45.811Z,80.15
2018-04-16T00:35:45.809Z,80.33
2018-04-16T00:36:45.805Z,80.43
2018-04-16T00:37:45.808Z,79.57
2018-04-16T00:38:45.802Z,80.33
2018-04-16T00:39:45.800Z,80.24
2018-04-16T00:40:45.799Z,80.33
2018-04-16T00:41:45.795Z,80.15
2018-04-16T00:42:45.791Z,80.43
2018-04-16T00:43:45.789Z,80.05
2018-04-16T00:44:45.787Z,80.01
2018-04-16T00:45:45.787Z,80.33
2018-04-16T00:46:45.783Z,80.33
2018-04-16T00:47:45.776Z,79.96
2018-04-16T00:48:45.778Z,79.77
2018-04-16T00:49:45.780Z,79.48
2018-04-16T00:50:45.782Z,79.96
2018-04-16T00:51:45.778Z,79.77
2018-04-16T00:52:45.773Z,80.24
2018-04-16T00:53:45.766Z,79.96
2018-04-16T00:54:45.772Z,80.15
2018-04-16T00:55:45.768Z,79.67
2018-04-16T00:56:45.761Z,79.28
2018-04-16T00:57:45.762Z,79.44
2018-04-16T00:58:45.760Z,79.53
2018-04-16T00:59:45.755Z,80.53
2018-04-16T01:00:45.749Z,79.96
2018-04-16T01:01:45.751Z,80.24
2018-04-16T01:02:45.749Z,80.05
2018-04-16T01:03:45.747Z,80.15
2018-04-16T01:04:45.752Z,80.05
2018-04-16T01:05:45.741Z,80.39
2018-04-16T01:06:45.737Z,79.96
2018-04-16T01:07:45.738Z,80.15
2018-04-16T01:08:45.734Z,80.62
2018-04-16T01:09:45.732Z,79.67
2018-04-16T01:10:45.729Z,80.24
2018-04-16T01:11:45.733Z,80.81
2018-04-16T01:12:45.726Z,80.33
2018-04-16T01:13:45.728Z,79.77
2018-04-16T01:14:45.723Z,80.20
2018-04-16T01:15:45.720Z,80.11
2018-04-16T01:16:45.716Z,79.15
2018-04-16T01:17:45.715Z,79.06
2018-04-16T01:18:45.711Z,78.96
2018-04-16T01:19:45.711Z,79.06
2018-04-16T01:20:45.709Z,79.35
2018-04-16T01:21:45.706Z,79.53
2018-04-16T01:22:45.702Z,79.53
2018-04-16T01:23:45.701Z,80.01
2018-04-16T01:24:45.700Z,80.01
2018-04-16T01:25:45.700Z,80.15
2018-04-16T01:26:45.695Z,79.82
2018-04-16T01:27:45.695Z,80.01
2018-04-16T01:28:45.690Z,79.72
2018-04-16T01:29:45.687Z,80.20
2018-04-16T01:30:45.687Z,79.63
2018-04-16T01:31:45.686Z,80.30
2018-04-16T01:32:45.683Z,79.35
2018-04-16T01:33:45.681Z,80.30
2018-04-16T01:34:45.679Z,79.91
2018-04-16T01:35:45.678Z,79.72
2018-04-16T01:36:45.682Z,79.63
2018-04-16T01:37:45.675Z,79.25
2018-04-16T01:38:45.676Z,80.01
2018-04-16T01:39:45.671Z,79.53
2018-04-16T01:40:45.671Z,79.06
2018-04-16T01:41:45.662Z,79.53
2018-04-16T01:42:45.658Z,79.53
2018-04-16T01:43:45.662Z,79.91
2018-04-16T01:44:45.668Z,79.53
2018-04-16T01:45:45.657Z,79.72
2018-04-16T01:46:45.653Z,79.35
2018-04-16T01:47:45.652Z,79.72
2018-04-16T01:48:45.648Z,80.01
2018-04-16T01:49:45.645Z,79.72
2018-04-16T01:50:45.645Z,79.53
2018-04-16T01:51:45.647Z,80.11
2018-04-16T01:52:45.642Z,80.01
2018-04-16T01:53:45.640Z,80.01
2018-04-16T01:54:45.634Z,79.91
2018-04-16T01:55:45.633Z,80.30
2018-04-16T01:56:45.634Z,80.20
2018-04-16T01:57:45.629Z,79.53
2018-04-16T01:58:45.627Z,79.35
2018-04-16T01:59:45.630Z,79.91
2018-04-16T02:00:45.621Z,79.53
2018-04-16T02:01:45.616Z,79.15
2018-04-16T02:02:45.619Z,79.91
2018-04-16T02:03:45.614Z,79.44
2018-04-16T02:04:45.610Z,79.35
2018-04-16T02:05:45.609Z,79.82
2018-04-16T02:06:45.606Z,79.91
2018-04-16T02:07:45.602Z,79.06
2018-04-16T02:08:45.600Z,80.11
2018-04-16T02:09:45.598Z,79.72
2018-04-16T02:10:45.598Z,79.44
2018-04-16T02:11:45.599Z,79.11
2018-04-16T02:12:45.590Z,79.30
2018-04-16T02:13:45.588Z,79.59
2018-04-16T02:14:45.594Z,78.92
2018-04-16T02:15:45.584Z,78.73
2018-04-16T02:16:45.580Z,79.78
2018-04-16T02:17:45.581Z,79.68
2018-04-16T02:18:45.576Z,79.40
2018-04-16T02:19:45.573Z,79.21
2018-04-16T02:20:45.569Z,79.02
2018-04-16T02:21:45.569Z,79.49
2018-04-16T02:22:45.565Z,79.78
2018-04-16T02:23:45.561Z,79.30
2018-04-16T02:24:45.558Z,79.53
2018-04-16T02:25:45.560Z,79.68
2018-04-16T02:26:45.554Z,79.25
2018-04-16T02:27:45.556Z,79.40
2018-04-16T02:28:45.551Z,79.30
2018-04-16T02:29:45.542Z,78.92
2018-04-16T02:30:45.543Z,78.83
2018-04-16T02:31:45.543Z,78.92
2018-04-16T02:32:45.542Z,78.73
2018-04-16T02:33:45.532Z,78.73
2018-04-16T02:34:45.535Z,78.77
2018-04-16T02:35:45.535Z,78.83
2018-04-16T02:36:45.523Z,78.92
2018-04-16T02:37:45.540Z,79.21
2018-04-16T02:38:45.522Z,79.15
2018-04-16T02:39:45.520Z,78.83
2018-04-16T02:40:45.518Z,78.83
2018-04-16T02:41:45.515Z,79.11
2018-04-16T02:42:45.519Z,79.53
2018-04-16T02:43:45.515Z,79.44
2018-04-16T02:44:45.508Z,79.63
2018-04-16T02:45:45.505Z,79.53
2018-04-16T02:46:45.500Z,79.63
2018-04-16T02:47:45.503Z,79.35
2018-04-16T02:48:45.497Z,79.44
2018-04-16T02:49:45.493Z,79.78
2018-04-16T02:50:45.489Z,79.68
2018-04-16T02:51:45.492Z,79.30
2018-04-16T02:52:45.484Z,79.21
2018-04-16T02:53:45.485Z,79.15
2018-04-16T02:54:45.487Z,79.82
2018-04-16T02:55:45.477Z,79.53
2018-04-16T02:56:45.485Z,79.35
2018-04-16T02:57:45.473Z,79.53
2018-04-16T02:58:45.471Z,80.01
2018-04-16T02:59:45.468Z,79.72
2018-04-16T03:00:45.468Z,79.40
2018-04-16T03:01:45.462Z,79.97
2018-04-16T03:02:45.467Z,80.01
2018-04-16T03:03:45.458Z,79.53
2018-04-16T03:04:45.453Z,79.63
2018-04-16T03:05:45.451Z,79.53
2018-04-16T03:06:45.450Z,80.11
2018-04-16T03:07:45.447Z,79.82
2018-04-16T03:08:45.444Z,79.30
2018-04-16T03:09:45.441Z,79.53
2018-04-16T03:10:45.439Z,79.30
2018-04-16T03:11:45.438Z,79.30
2018-04-16T03:12:45.435Z,79.11
2018-04-16T03:13:45.483Z,79.25
2018-04-16T03:14:45.430Z,79.49
2018-04-16T03:15:45.427Z,79.35
2018-04-16T03:16:45.423Z,79.82
2018-04-16T03:17:45.421Z,79.53
2018-04-16T03:18:45.420Z,79.72
2018-04-16T03:19:45.417Z,79.63
2018-04-16T03:20:45.450Z,79.72
2018-04-16T03:21:45.412Z,80.01
2018-04-16T03:22:45.405Z,79.91
2018-04-16T03:23:45.409Z,79.72
2018-04-16T03:24:45.407Z,80.20
2018-04-16T03:25:45.400Z,79.63
2018-04-16T03:26:45.403Z,80.01
2018-04-16T03:27:45.392Z,79.44
2018-04-16T03:28:45.395Z,79.44
2018-04-16T03:29:45.393Z,79.35
2018-04-16T03:30:45.393Z,79.72
2018-04-16T03:31:45.385Z,78.96
2018-04-16T03:32:45.383Z,80.11
2018-04-16T03:33:45.381Z,79.53
2018-04-16T03:34:45.381Z,79.35
2018-04-16T03:35:45.380Z,80.20
2018-04-16T03:36:45.373Z,80.20
2018-04-16T03:37:45.370Z,80.11
2018-04-16T03:38:45.374Z,80.11
2018-04-16T03:39:45.365Z,79.72
2018-04-16T03:40:45.363Z,79.91
2018-04-16T03:41:45.361Z,79.82
2018-04-16T03:42:45.359Z,79.53
2018-04-16T03:43:45.356Z,79.82
2018-04-16T03:44:45.353Z,79.25
2018-04-16T03:45:45.349Z,79.06
2018-04-16T03:46:45.348Z,79.72
2018-04-16T03:47:45.345Z,79.91
2018-04-16T03:48:45.344Z,79.91
2018-04-16T03:49:45.346Z,80.20
2018-04-16T03:50:45.338Z,80.01
2018-04-16T03:51:45.336Z,79.91
2018-04-16T03:52:45.333Z,80.11
2018-04-16T03:53:45.330Z,79.91
2018-04-16T03:54:45.329Z,79.44
2018-04-16T03:55:45.326Z,79.53
2018-04-16T03:56:45.327Z,79.91
2018-04-16T03:57:45.315Z,80.01
2018-04-16T03:58:45.318Z,80.20
2018-04-16T03:59:45.316Z,79.91
2018-04-16T04:00:45.317Z,80.11
2018-04-16T04:01:45.311Z,80.39
2018-04-16T04:02:45.308Z,79.91
2018-04-16T04:03:45.306Z,80.01
2018-04-16T04:04:45.305Z,79.91
2018-04-16T04:05:45.300Z,79.72
2018-04-16T04:06:45.299Z,80.11
2018-04-16T04:07:45.299Z,80.01
2018-04-16T04:08:45.294Z,79.72
2018-04-16T04:09:45.292Z,79.91
2018-04-16T04:10:45.294Z,80.49
2018-04-16T04:11:45.288Z,80.49
2018-04-16T04:12:45.284Z,79.63
2018-04-16T04:13:45.286Z,79.91
2018-04-16T04:14:45.280Z,80.39
2018-04-16T04:15:45.277Z,80.01
2018-04-16T04:16:45.273Z,80.01
2018-04-16T04:17:45.274Z,79.72
2018-04-16T04:18:45.273Z,80.20
2018-04-16T04:19:45.272Z,80.01
2018-04-16T04:20:45.265Z,79.91
2018-04-16T04:21:45.264Z,79.91
2018-04-16T04:22:45.258Z,79.91
2018-04-16T04:23:45.256Z,80.01
2018-04-16T04:24:45.257Z,80.01
2018-04-16T04:25:45.270Z,80.01
2018-04-16T04:26:45.248Z,79.91
2018-04-16T04:27:45.245Z,79.91
2018-04-16T04:28:45.243Z,80.20
2018-04-16T04:29:45.246Z,79.91
2018-04-16T04:30:45.237Z,80.01
2018-04-16T04:31:45.237Z,79.91
2018-04-16T04:32:45.236Z,80.01
2018-04-16T04:33:45.230Z,79.91
2018-04-16T04:34:45.234Z,80.01
2018-04-16T04:35:45.227Z,80.39
2018-04-16T04:36:45.223Z,80.01
2018-04-16T04:37:45.221Z,79.82
2018-04-16T04:38:45.218Z,79.82
2018-04-16T04:39:45.216Z,80.01
2018-04-16T04:40:45.224Z,80.11
2018-04-16T04:41:45.211Z,79.72
2018-04-16T04:42:45.208Z,80.68
2018-04-16T04:43:45.208Z,80.11
2018-04-16T04:44:45.201Z,80.01
2018-04-16T04:45:45.201Z,80.01
2018-04-16T04:46:45.201Z,80.11
2018-04-16T04:47:45.193Z,80.39
2018-04-16T04:48:45.191Z,79.91
2018-04-16T04:49:45.187Z,80.01
2018-04-16T04:50:45.189Z,79.63
2018-04-16T04:51:45.186Z,79.53
2018-04-16T04:52:45.181Z,80.49
2018-04-16T04:53:45.196Z,80.49
2018-04-16T04:54:45.176Z,80.11
2018-04-16T04:55:45.172Z,79.82
2018-04-16T04:56:45.169Z,80.20
2018-04-16T04:57:45.173Z,79.63
2018-04-16T04:58:45.165Z,80.01
2018-04-16T04:59:45.161Z,80.11
2018-04-16T05:00:45.158Z,79.72
2018-04-16T05:01:45.163Z,80.11
2018-04-16T05:02:45.154Z,79.82
2018-04-16T05:03:45.165Z,80.01
2018-04-16T05:04:45.148Z,80.01
2018-04-16T05:05:45.148Z,79.63
2018-04-16T05:06:45.145Z,79.82
2018-04-16T05:07:45.146Z,79.68
2018-04-16T05:08:45.138Z,80.20
2018-04-16T05:09:45.136Z,79.63
2018-04-16T05:10:45.133Z,79.82
2018-04-16T05:11:45.130Z,79.72
2018-04-16T05:12:45.133Z,80.01
2018-04-16T05:13:45.123Z,79.91
2018-04-16T05:14:45.124Z,80.11
2018-04-16T05:15:45.120Z,80.11
2018-04-16T05:16:45.112Z,79.91
2018-04-16T05:17:45.127Z,80.20
2018-04-16T05:18:45.110Z,79.91
2018-04-16T05:19:45.109Z,79.91
2018-04-16T05:20:45.104Z,79.82
2018-04-16T05:21:45.102Z,79.91
2018-04-16T05:22:45.099Z,79.63
2018-04-16T05:23:45.099Z,79.53
2018-04-16T05:24:45.093Z,79.82
2018-04-16T05:25:45.092Z,79.35
2018-04-16T05:26:45.090Z,79.91
2018-04-16T05:27:45.083Z,79.35
2018-04-16T05:28:45.081Z,79.44
2018-04-16T05:29:45.079Z,79.44
2018-04-16T05:30:45.082Z,79.63
2018-04-16T05:31:45.081Z,79.44
2018-04-16T05:32:45.072Z,79.72
2018-04-16T05:33:45.070Z,79.82
2018-04-16T05:34:45.065Z,78.77
2018-04-16T05:35:45.066Z,79.53
2018-04-16T05:36:45.059Z,79.82
2018-04-16T05:37:45.055Z,78.77
2018-04-16T05:38:45.054Z,79.15
2018-04-16T05:39:45.060Z,79.21
2018-04-16T05:40:45.051Z,78.96
2018-04-16T05:41:45.045Z,79.15
2018-04-16T05:42:45.043Z,79.35
2018-04-16T05:43:45.042Z,79.15
2018-04-16T05:44:45.034Z,79.40
2018-04-16T05:45:45.037Z,79.02
2018-04-16T05:46:45.032Z,79.11
2018-04-16T05:47:45.032Z,79.30
2018-04-16T05:48:45.028Z,79.02
2018-04-16T05:49:45.024Z,78.83
2018-04-16T05:50:45.022Z,78.77
2018-04-16T05:51:45.016Z,79.30
2018-04-16T05:52:45.013Z,79.21
2018-04-16T05:53:45.009Z,78.86
2018-04-16T05:54:45.005Z,78.92
2018-04-16T05:55:45.003Z,78.54
2018-04-16T05:56:45.000Z,78.73
2018-04-16T05:57:44.997Z,78.83
2018-04-16T05:58:44.992Z,78.64
2018-04-16T05:59:44.994Z,78.83
2018-04-16T06:00:44.993Z,79.11
2018-04-16T06:01:44.985Z,78.64
2018-04-16T06:02:44.985Z,78.30
2018-04-16T06:03:44.981Z,78.67
2018-04-16T06:04:44.982Z,78.77
2018-04-16T06:05:44.975Z,79.15
2018-04-16T06:06:44.971Z,79.82
2018-04-16T06:07:45.020Z,79.44
2018-04-16T06:08:45.015Z,79.35
2018-04-16T06:09:44.962Z,78.96
2018-04-16T06:10:44.960Z,79.06
2018-04-16T06:11:44.957Z,78.86
2018-04-16T06:12:44.951Z,79.25
2018-04-16T06:13:44.956Z,79.35
2018-04-16T06:14:44.949Z,79.35
2018-04-16T06:15:44.944Z,79.25
2018-04-16T06:16:44.944Z,79.53
2018-04-16T06:17:44.939Z,79.44
2018-04-16T06:18:44.935Z,79.63
2018-04-16T06:19:44.933Z,79.72
2018-04-16T06:20:44.929Z,80.01
2018-04-16T06:21:44.930Z,80.20
2018-04-16T06:22:44.936Z,80.01
2018-04-16T06:23:44.943Z,79.72
2018-04-16T06:24:44.952Z,79.82
2018-04-16T06:25:44.959Z,80.01
2018-04-16T06:26:44.963Z,80.20
2018-04-16T06:27:44.983Z,79.63
2018-04-16T06:28:44.979Z,79.82
2018-04-16T06:29:45.028Z,79.63
2018-04-16T06:30:44.901Z,79.53
2018-04-16T06:31:44.900Z,79.91
2018-04-16T06:32:44.900Z,79.72
2018-04-16T06:33:44.903Z,79.63
2018-04-16T06:34:44.892Z,80.58
2018-04-16T06:35:45.081Z,81.06
2018-04-16T06:36:44.894Z,80.58
2018-04-16T06:37:44.883Z,80.01
2018-04-16T06:38:44.919Z,80.11
2018-04-16T06:39:44.879Z,80.20
2018-04-16T06:40:44.881Z,80.20
2018-04-16T06:41:45.017Z,79.44
2018-04-16T06:42:44.869Z,79.53
2018-04-16T06:43:44.868Z,80.01
2018-04-16T06:44:44.865Z,79.44
2018-04-16T06:45:44.861Z,79.91
2018-04-16T06:46:44.858Z,79.48
2018-04-16T06:47:44.859Z,79.91
2018-04-16T06:48:44.852Z,80.43
2018-04-16T06:49:44.850Z,80.05
2018-04-16T06:50:44.850Z,80.72
2018-04-16T06:51:44.844Z,80.05
2018-04-16T06:52:44.840Z,78.91
2018-04-16T06:53:44.840Z,80.05
2018-04-16T06:54:44.840Z,79.96
2018-04-16T06:55:44.835Z,79.57
2018-04-16T06:56:44.832Z,80.15
2018-04-16T06:57:44.833Z,80.15
2018-04-16T06:58:44.825Z,80.72
2018-04-16T06:59:44.824Z,80.72
2018-04-16T07:00:44.825Z,80.53
2018-04-16T07:01:44.823Z,80.05
2018-04-16T07:02:44.817Z,79.19
2018-04-16T07:03:44.816Z,79.00
2018-04-16T07:04:44.816Z,80.33
2018-04-16T07:05:44.818Z,80.72
2018-04-16T07:06:44.810Z,80.81
2018-04-16T07:07:44.807Z,80.24
2018-04-16T07:08:44.809Z,80.62
2018-04-16T07:09:44.796Z,80.62
2018-04-16T07:10:44.798Z,79.86
2018-04-16T07:11:44.798Z,80.81
2018-04-16T07:12:44.795Z,80.62
2018-04-16T07:13:44.792Z,80.91
2018-04-16T07:14:44.792Z,80.81
2018-04-16T07:15:44.840Z,80.62
2018-04-16T07:16:44.786Z,80.72
2018-04-16T07:17:44.792Z,80.72
2018-04-16T07:18:44.782Z,80.53
2018-04-16T07:19:44.779Z,81.01
2018-04-16T07:20:44.780Z,80.43
2018-04-16T07:21:44.775Z,80.05
2018-04-16T07:22:44.777Z,80.15
2018-04-16T07:23:44.775Z,80.33
2018-04-16T07:24:44.768Z,79.57
2018-04-16T07:25:44.765Z,80.15
2018-04-16T07:26:44.769Z,79.96
2018-04-16T07:27:44.796Z,79.10
2018-04-16T07:28:44.757Z,79.10
2018-04-16T07:29:44.766Z,79.00
2018-04-16T07:30:44.755Z,79.10
2018-04-16T07:31:44.752Z,78.43
2018-04-16T07:32:44.747Z,78.91
2018-04-16T07:33:44.940Z,77.67
2018-04-16T07:34:44.745Z,78.14
2018-04-16T07:35:44.777Z,77.19
2018-04-16T07:36:44.737Z,77.95
2018-04-16T07:37:44.738Z,78.43
2018-04-16T07:38:44.735Z,77.76
2018-04-16T07:39:44.815Z,78.23
2018-04-16T07:40:44.743Z,79.10
2018-04-16T07:41:44.730Z,78.05
2018-04-16T07:42:44.727Z,78.05
2018-04-16T07:43:44.767Z,77.57
2018-04-16T07:44:44.729Z,77.86
2018-04-16T07:45:45.250Z,78.52
2018-04-16T07:46:44.720Z,78.14
2018-04-16T07:47:44.718Z,77.47
2018-04-16T07:48:44.719Z,78.62
2018-04-16T07:49:44.715Z,77.95
2018-04-16T07:50:44.712Z,78.14
2018-04-16T07:51:44.715Z,78.14
2018-04-16T07:52:44.705Z,78.62
2018-04-16T07:53:44.711Z,78.33
2018-04-16T07:54:44.704Z,78.23
2018-04-16T07:55:44.701Z,78.72
2018-04-16T07:56:44.697Z,78.23
2018-04-16T07:57:44.881Z,78.23
2018-04-16T07:58:44.695Z,77.38
2018-04-16T07:59:44.696Z,77.47
2018-04-16T08:00:44.690Z,77.09
2018-04-16T08:01:44.688Z,77.09
2018-04-16T08:02:44.694Z,77.57
2018-04-16T08:03:44.690Z,77.19
2018-04-16T08:04:44.683Z,78.05
2018-04-16T08:05:44.738Z,77.09
2018-04-16T08:06:44.688Z,77.67
2018-04-16T08:07:44.674Z,77.57
2018-04-16T08:08:44.678Z,77.38
2018-04-16T08:09:44.673Z,77.38
2018-04-16T08:10:44.669Z,76.52
2018-04-16T08:11:44.665Z,77.09
2018-04-16T08:12:44.667Z,77.03
2018-04-16T08:13:44.666Z,78.28
2018-04-16T08:14:44.666Z,77.47
2018-04-16T08:15:44.710Z,77.76
2018-04-16T08:16:44.663Z,77.76
2018-04-16T08:17:44.655Z,76.71
2018-04-16T08:18:44.654Z,77.57
2018-04-16T08:19:44.651Z,77.09
2018-04-16T08:20:44.650Z,76.81
2018-04-16T08:21:44.648Z,76.90
2018-04-16T08:22:44.646Z,76.94
2018-04-16T08:23:44.781Z,77.28
2018-04-16T08:24:44.641Z,77.38
2018-04-16T08:25:44.641Z,77.00
2018-04-16T08:26:44.645Z,77.09
2018-04-16T08:27:44.635Z,77.38
2018-04-16T08:28:44.641Z,77.00
2018-04-16T08:29:44.677Z,77.23
2018-04-16T08:30:44.630Z,76.94
2018-04-16T08:31:44.641Z,77.76
2018-04-16T08:32:44.626Z,77.03
2018-04-16T08:33:44.626Z,77.42
2018-04-16T08:34:44.624Z,76.84
2018-04-16T08:35:44.621Z,76.04
2018-04-16T08:36:44.618Z,77.86
2018-04-16T08:37:44.618Z,77.00
2018-04-16T08:38:44.625Z,76.81
2018-04-16T08:39:44.614Z,76.52
2018-04-16T08:40:44.611Z,77.70
2018-04-16T08:41:44.612Z,77.51
2018-04-16T08:42:44.608Z,77.42
2018-04-16T08:43:44.603Z,77.32
2018-04-16T08:44:44.602Z,77.51
2018-04-16T08:45:44.602Z,77.23
2018-04-16T08:46:44.598Z,77.42
2018-04-16T08:47:44.595Z,77.61
2018-04-16T08:48:44.599Z,77.51
2018-04-16T08:49:44.593Z,77.42
2018-04-16T08:50:44.591Z,77.99
2018-04-16T08:51:44.590Z,77.13
2018-04-16T08:52:44.585Z,77.51
2018-04-16T08:53:44.590Z,77.51
2018-04-16T08:54:44.579Z,77.70
2018-04-16T08:55:44.580Z,77.23
2018-04-16T08:56:44.577Z,77.51
2018-04-16T08:57:44.584Z,77.61
2018-04-16T08:58:44.575Z,77.61
2018-04-16T08:59:44.579Z,78.18
2018-04-16T09:00:44.570Z,77.99
2018-04-16T09:01:44.569Z,77.51
2018-04-16T09:02:44.567Z,78.28
2018-04-16T09:03:44.570Z,78.99
2018-04-16T09:04:44.563Z,78.51
2018-04-16T09:05:44.563Z,78.03
2018-04-16T09:06:44.561Z,78.03
2018-04-16T09:07:44.564Z,78.13
2018-04-16T09:08:44.603Z,77.11
2018-04-16T09:09:44.554Z,78.45
2018-04-16T09:10:44.554Z,78.45
2018-04-16T09:11:44.553Z,77.69
2018-04-16T09:12:44.733Z,77.87
2018-04-16T09:13:44.549Z,78.74
2018-04-16T09:14:44.544Z,79.22
2018-04-16T09:15:44.758Z,79.12
2018-04-16T09:16:44.543Z,78.55
2018-04-16T09:17:44.542Z,78.55
2018-04-16T09:18:44.542Z,78.74
2018-04-16T09:19:44.608Z,78.26
2018-04-16T09:20:44.537Z,77.87
2018-04-16T09:21:44.657Z,78.36
2018-04-16T09:22:44.539Z,77.59
2018-04-16T09:23:44.534Z,76.82
2018-04-16T09:24:44.547Z,78.22
2018-04-16T09:25:44.531Z,77.55
2018-04-16T09:26:44.536Z,78.22
2018-04-16T09:27:44.527Z,77.55
2018-04-16T09:28:44.531Z,77.59
2018-04-16T09:29:44.585Z,76.64
2018-04-16T09:30:44.524Z,77.59
2018-04-16T09:31:44.521Z,77.11
2018-04-16T09:32:44.529Z,77.11
2018-04-16T09:33:44.520Z,77.63
2018-04-16T09:34:44.518Z,78.20
2018-04-16T09:35:44.519Z,78.58
2018-04-16T09:36:44.518Z,78.01
2018-04-16T09:37:44.515Z,78.97
2018-04-16T09:38:44.511Z,79.25
2018-04-16T09:39:44.524Z,79.06
2018-04-16T09:40:44.512Z,78.58
2018-04-16T09:41:44.516Z,78.20
2018-04-16T09:42:44.510Z,78.30
2018-04-16T09:43:44.522Z,79.35
2018-04-16T09:44:44.510Z,79.16
2018-04-16T09:45:44.511Z,79.16
2018-04-16T09:46:44.508Z,78.49
2018-04-16T09:47:44.504Z,78.83
2018-04-16T09:48:44.697Z,79.35
2018-04-16T09:49:44.503Z,78.30
2018-04-16T09:50:44.500Z,77.92
2018-04-16T09:51:44.501Z,78.30
2018-04-16T09:52:44.505Z,79.16
2018-04-16T09:53:44.500Z,78.49
2018-04-16T09:54:44.499Z,78.78
2018-04-16T09:55:44.497Z,78.20
2018-04-16T09:56:44.495Z,78.39
2018-04-16T09:57:44.496Z,78.68
2018-04-16T09:58:44.494Z,78.72
2018-04-16T09:59:44.512Z,79.10
2018-04-16T10:00:44.495Z,79.58
2018-04-16T10:01:44.493Z,78.72
2018-04-16T10:02:44.485Z,79.68
2018-04-16T10:03:44.488Z,79.58
2018-04-16T10:04:44.500Z,80.25
2018-04-16T10:05:44.491Z,79.87
2018-04-16T10:06:44.487Z,80.54
2018-04-16T10:07:44.495Z,80.06
2018-04-16T10:08:44.485Z,80.54
2018-04-16T10:09:44.484Z,77.86
2018-04-16T10:10:44.484Z,79.10
2018-04-16T10:11:44.486Z,77.76
2018-04-16T10:12:44.481Z,78.68
2018-04-16T10:13:44.481Z,78.81
2018-04-16T10:14:44.483Z,79.49
2018-04-16T10:15:44.502Z,78.14
2018-04-16T10:16:44.485Z,80.73
2018-04-16T10:17:44.479Z,79.68
2018-04-16T10:18:44.479Z,79.39
2018-04-16T10:19:44.484Z,80.92
2018-04-16T10:20:44.477Z,79.58
2018-04-16T10:21:44.477Z,79.58
2018-04-16T10:22:44.476Z,80.00
2018-04-16T10:23:44.482Z,79.43
2018-04-16T10:24:44.476Z,79.33
2018-04-16T10:25:44.475Z,80.38
2018-04-16T10:26:44.476Z,80.19
2018-04-16T10:27:44.478Z,80.58
2018-04-16T10:28:44.475Z,80.48
2018-04-16T10:29:44.478Z,80.77
2018-04-16T10:30:44.475Z,80.38
2018-04-16T10:31:44.485Z,80.00
2018-04-16T10:32:44.473Z,79.91
2018-04-16T10:33:44.503Z,79.91
2018-04-16T10:34:44.670Z,81.25
2018-04-16T10:35:44.474Z,80.52
2018-04-16T10:36:44.474Z,80.48
2018-04-16T10:37:44.497Z,80.52
2018-04-16T10:38:44.473Z,81.38
2018-04-16T10:39:44.473Z,80.14
2018-04-16T10:40:44.472Z,81.29
2018-04-16T10:41:44.579Z,81.20
2018-04-16T10:42:44.482Z,80.24
2018-04-16T10:43:44.474Z,80.24
2018-04-16T10:44:44.471Z,80.14
2018-04-16T10:45:44.475Z,79.95
2018-04-16T10:46:44.470Z,81.13
2018-04-16T10:47:44.472Z,80.47
2018-04-16T10:48:44.472Z,82.00
2018-04-16T10:49:44.532Z,80.56
2018-04-16T10:50:44.615Z,80.94
2018-04-16T10:51:44.481Z,81.23
2018-04-16T10:52:44.474Z,81.33
2018-04-16T10:53:44.473Z,82.04
2018-04-16T10:54:44.472Z,81.56
2018-04-16T10:55:44.474Z,82.04
2018-04-16T10:56:44.472Z,81.08
2018-04-16T10:57:44.558Z,80.79
2018-04-16T10:58:44.477Z,81.70
2018-04-16T10:59:44.534Z,80.70
2018-04-16T11:00:44.544Z,82.37
2018-04-16T11:01:44.785Z,82.46
2018-04-16T11:02:44.499Z,81.70
2018-04-16T11:03:44.483Z,82.18
2018-04-16T11:04:44.602Z,83.14
2018-04-16T11:05:44.485Z,81.12
2018-04-16T11:06:44.481Z,83.52
2018-04-16T11:07:44.477Z,81.70
2018-04-16T11:08:44.481Z,82.85
2018-04-16T11:09:44.723Z,82.37
2018-04-16T11:10:44.501Z,81.93
2018-04-16T11:11:44.487Z,81.54
2018-04-16T11:12:44.482Z,82.51
2018-04-16T11:13:44.613Z,82.41
2018-04-16T11:14:44.488Z,82.12
2018-04-16T11:15:44.520Z,82.79
2018-04-16T11:16:44.490Z,82.51
2018-04-16T11:17:44.548Z,82.31
2018-04-16T11:18:44.493Z,82.51
2018-04-16T11:19:44.767Z,82.07
2018-04-16T11:20:44.493Z,82.54
2018-04-16T11:21:44.496Z,83.22
2018-04-16T11:22:44.496Z,82.98
2018-04-16T11:23:44.501Z,82.41
2018-04-16T11:24:44.747Z,82.89
2018-04-16T11:25:44.499Z,81.54
2018-04-16T11:26:45.138Z,82.51
2018-04-16T11:27:44.878Z,81.70
2018-04-16T11:28:44.825Z,82.46
2018-04-16T11:29:44.552Z,81.12
2018-04-16T11:30:44.510Z,82.75
2018-04-16T11:31:44.508Z,82.46
2018-04-16T11:32:44.517Z,82.70
2018-04-16T11:33:44.510Z,82.18
2018-04-16T11:34:44.511Z,82.12
2018-04-16T11:35:44.515Z,81.54
2018-04-16T11:36:44.523Z,82.03
2018-04-16T11:37:44.514Z,82.60
2018-04-16T11:38:44.517Z,82.60
2018-04-16T11:39:44.521Z,82.31
2018-04-16T11:40:44.518Z,82.03
2018-04-16T11:41:44.522Z,81.16
2018-04-16T11:42:44.528Z,81.74
2018-04-16T11:43:44.621Z,81.26
2018-04-16T11:44:44.528Z,81.64
2018-04-16T11:45:44.648Z,83.80
2018-04-16T11:46:44.565Z,82.51
2018-04-16T11:47:44.528Z,82.21
2018-04-16T11:48:44.606Z,82.79
2018-04-16T11:49:44.532Z,83.80
2018-04-16T11:50:44.530Z,82.64
2018-04-16T11:51:44.544Z,82.35
2018-04-16T11:52:44.534Z,83.70
2018-04-16T11:53:44.650Z,82.74
2018-04-16T11:54:44.536Z,82.54
2018-04-16T11:55:44.545Z,82.64
2018-04-16T11:56:44.538Z,82.84
2018-04-16T11:57:44.539Z,82.74
2018-04-16T11:58:44.581Z,82.49
2018-04-16T11:59:44.544Z,82.01
2018-04-16T12:00:44.646Z,82.93
2018-04-16T12:01:44.551Z,82.74
2018-04-16T12:02:44.551Z,82.64
2018-04-16T12:03:44.551Z,81.40
2018-04-16T12:04:44.571Z,81.78
2018-04-16T12:05:44.553Z,83.41
2018-04-16T12:06:44.553Z,82.93
2018-04-16T12:07:44.555Z,82.41
2018-04-16T12:08:44.553Z,81.74
2018-04-16T12:09:44.699Z,82.35
2018-04-16T12:10:44.560Z,82.84
2018-04-16T12:11:44.561Z,82.51
2018-04-16T12:12:44.563Z,82.12
2018-04-16T12:13:44.564Z,82.26
2018-04-16T12:14:44.571Z,82.84
2018-04-16T12:15:44.568Z,82.64
2018-04-16T12:16:44.568Z,83.70
2018-04-16T12:17:44.579Z,82.41
2018-04-16T12:18:44.573Z,82.70
2018-04-16T12:19:44.613Z,81.74
2018-04-16T12:20:44.582Z,82.79
2018-04-16T12:21:44.576Z,81.64
2018-04-16T12:22:44.575Z,82.70
2018-04-16T12:23:44.631Z,82.84
2018-04-16T12:24:44.580Z,82.93
2018-04-16T12:25:44.750Z,82.64
2018-04-16T12:26:44.580Z,82.31
2018-04-16T12:27:44.633Z,81.10
2018-04-16T12:28:44.585Z,83.70
2018-04-16T12:29:44.586Z,83.60
2018-04-16T12:30:44.591Z,82.84
2018-04-16T12:31:44.590Z,83.41
2018-04-16T12:32:44.593Z,82.31
2018-04-16T12:33:44.595Z,81.87
2018-04-16T12:34:44.593Z,82.74
2018-04-16T12:35:44.717Z,82.54
2018-04-16T12:36:44.605Z,82.12
2018-04-16T12:37:44.598Z,82.21
2018-04-16T12:38:44.599Z,82.51
2018-04-16T12:39:44.601Z,82.79
2018-04-16T12:40:44.608Z,82.31
2018-04-16T12:41:44.768Z,81.97
2018-04-16T12:42:44.800Z,82.70
2018-04-16T12:43:44.717Z,82.16
2018-04-16T12:44:44.823Z,81.97
2018-04-16T12:45:44.610Z,83.51
2018-04-16T12:46:44.612Z,82.64
2018-04-16T12:47:44.613Z,82.54
2018-04-16T12:48:44.712Z,82.79
2018-04-16T12:49:44.619Z,82.79
2018-04-16T12:50:44.632Z,82.31
2018-04-16T12:51:44.633Z,83.27
2018-04-16T12:52:44.622Z,82.51